createdAt,value
2018-06-17T00:01:41.585Z,20.96
2018-06-17T00:04:11.522Z,20.94
2018-06-17T00:06:41.368Z,21.05
2018-06-17T00:09:11.231Z,21.05
2018-06-17T00:11:41.075Z,21.12
2018-06-17T00:14:10.928Z,21.09
2018-06-17T00:16:40.768Z,21.19
2018-06-17T00:19:10.592Z,21.19
2018-06-17T00:21:40.444Z,21.22
2018-06-17T00:24:10.260Z,21.29
2018-06-17T00:26:40.157Z,21.29
2018-06-17T00:29:09.952Z,21.24
2018-06-17T00:31:39.815Z,21.22
2018-06-17T00:34:09.585Z,21.20
2018-06-17T00:36:39.457Z,21.22
2018-06-17T00:39:11.056Z,21.25
2018-06-17T00:41:41.071Z,21.22
2018-06-17T00:44:10.893Z,21.19
2018-06-17T00:46:40.719Z,21.16
2018-06-17T00:49:10.557Z,21.18
2018-06-17T00:51:40.412Z,21.17
2018-06-17T00:54:10.208Z,21.20
2018-06-17T00:56:40.036Z,21.23
2018-06-17T00:59:09.912Z,21.24
2018-06-17T01:01:39.729Z,21.22
2018-06-17T01:04:09.644Z,21.21
2018-06-17T01:06:39.481Z,21.17
2018-06-17T01:09:09.394Z,21.20
2018-06-17T01:11:39.244Z,21.23
2018-06-17T01:14:09.072Z,21.25
2018-06-17T01:16:38.911Z,21.28
2018-06-17T01:19:08.771Z,21.24
2018-06-17T01:21:38.648Z,21.20
2018-06-17T01:24:08.441Z,21.20
2018-06-17T01:26:38.279Z,21.17
2018-06-17T01:29:08.580Z,21.15
2018-06-17T01:31:38.436Z,21.18
2018-06-17T01:34:08.316Z,21.19
2018-06-17T01:36:38.138Z,21.16
2018-06-17T01:39:08.637Z,21.14
2018-06-17T01:41:38.507Z,21.06
2018-06-17T01:44:08.390Z,21.03
2018-06-17T01:46:38.211Z,20.99
2018-06-17T01:49:08.009Z,20.95
2018-06-17T01:51:37.879Z,20.90
2018-06-17T01:54:07.738Z,20.81
2018-06-17T01:56:37.571Z,20.73
2018-06-17T01:59:07.361Z,20.64
2018-06-17T02:01:37.241Z,20.65
2018-06-17T02:04:12.028Z,20.56
2018-06-17T02:08:53.956Z,20.50
2018-06-17T02:11:28.684Z,20.41
2018-06-17T02:14:03.700Z,20.44
2018-06-17T02:16:33.590Z,20.23
2018-06-17T02:19:03.455Z,20.15
2018-06-17T02:21:33.264Z,20.13
2018-06-17T02:24:03.283Z,20.09
2018-06-17T02:26:33.153Z,20.07
2018-06-17T02:29:02.993Z,20.00
2018-06-17T02:31:33.031Z,19.98
2018-06-17T02:34:02.855Z,19.95
2018-06-17T02:36:32.701Z,20.03
2018-06-17T02:39:02.564Z,20.04
2018-06-17T02:41:32.456Z,20.02
2018-06-17T02:44:02.322Z,20.11
2018-06-17T02:46:37.211Z,19.97
2018-06-17T02:49:12.449Z,19.74
2018-06-17T02:51:47.280Z,19.72
2018-06-17T02:54:22.078Z,19.67
2018-06-17T02:56:51.922Z,19.66
2018-06-17T02:59:21.724Z,19.51
2018-06-17T03:01:51.633Z,19.35
2018-06-17T03:04:21.440Z,19.31
2018-06-17T03:06:51.340Z,19.35
2018-06-17T03:09:21.207Z,19.51
2018-06-17T03:11:51.036Z,19.56
2018-06-17T03:14:20.890Z,19.66
2018-06-17T03:16:50.855Z,19.65
2018-06-17T03:19:20.952Z,19.64
2018-06-17T03:21:50.877Z,19.74
2018-06-17T03:24:25.916Z,19.91
2018-06-17T03:27:00.683Z,19.87
2018-06-17T03:29:35.551Z,19.86
2018-06-17T03:32:10.509Z,20.13
2018-06-17T03:34:40.373Z,20.15
2018-06-17T03:37:10.240Z,20.22
2018-06-17T03:39:40.043Z,20.26
2018-06-17T03:42:09.895Z,20.29
2018-06-17T03:44:39.737Z,20.22
2018-06-17T03:47:09.569Z,20.20
2018-06-17T03:49:39.376Z,20.41
2018-06-17T03:52:09.227Z,20.44
2018-06-17T03:54:39.013Z,20.40
2018-06-17T03:57:08.839Z,20.45
2018-06-17T03:59:38.641Z,20.55
2018-06-17T04:02:08.475Z,20.40
2018-06-17T04:04:43.404Z,20.38
2018-06-17T04:07:13.197Z,20.44
2018-06-17T04:09:43.033Z,20.59
2018-06-17T04:12:12.892Z,20.60
2018-06-17T04:14:42.731Z,20.62
2018-06-17T04:17:15.047Z,20.67
2018-06-17T04:19:46.364Z,20.82
2018-06-17T04:22:16.235Z,20.89
2018-06-17T04:24:46.120Z,21.03
2018-06-17T04:27:15.916Z,21.05
2018-06-17T04:29:45.743Z,21.22
2018-06-17T04:32:15.559Z,21.20
2018-06-17T04:34:45.379Z,21.15
2018-06-17T04:37:15.176Z,21.27
2018-06-17T04:39:45.013Z,21.32
2018-06-17T04:42:14.856Z,21.37
2018-06-17T04:44:44.677Z,21.47
2018-06-17T04:47:14.528Z,21.55
2018-06-17T04:49:44.350Z,21.60
2018-06-17T04:52:14.240Z,21.69
2018-06-17T04:54:44.048Z,21.78
2018-06-17T04:57:13.914Z,22.02
2018-06-17T04:59:43.792Z,22.19
2018-06-17T05:02:13.643Z,22.27
2018-06-17T05:04:43.463Z,22.43
2018-06-17T05:07:13.269Z,22.61
2018-06-17T05:09:43.101Z,22.72
2018-06-17T05:12:12.922Z,23.07
2018-06-17T05:14:42.755Z,23.40
2018-06-17T05:17:12.636Z,23.81
2018-06-17T05:19:42.503Z,24.23
2018-06-17T05:22:12.327Z,23.75
2018-06-17T05:24:42.152Z,24.71
2018-06-17T05:27:12.006Z,24.87
2018-06-17T05:29:41.814Z,25.33
2018-06-17T05:32:11.716Z,25.59
2018-06-17T05:34:41.504Z,25.80
2018-06-17T05:37:11.384Z,25.67
2018-06-17T05:39:41.176Z,25.76
2018-06-17T05:42:11.006Z,26.11
2018-06-17T05:44:40.820Z,26.20
2018-06-17T05:47:10.668Z,26.11
2018-06-17T05:49:40.512Z,26.15
2018-06-17T05:52:10.336Z,26.14
2018-06-17T05:54:40.160Z,26.49
2018-06-17T05:57:09.956Z,26.55
2018-06-17T05:59:39.808Z,26.82
2018-06-17T06:02:09.604Z,27.00
2018-06-17T06:04:39.416Z,27.06
2018-06-17T06:07:09.223Z,26.83
2018-06-17T06:09:39.060Z,26.80
2018-06-17T06:12:08.921Z,26.62
2018-06-17T06:14:38.800Z,27.11
2018-06-17T06:17:08.739Z,27.28
2018-06-17T06:19:38.536Z,27.38
2018-06-17T06:22:08.368Z,27.59
2018-06-17T06:24:38.212Z,27.45
2018-06-17T06:27:08.099Z,27.39
2018-06-17T06:29:37.965Z,27.30
2018-06-17T06:32:07.905Z,27.26
2018-06-17T06:34:37.798Z,27.39
2018-06-17T06:37:07.660Z,27.19
2018-06-17T06:39:37.470Z,27.42
2018-06-17T06:42:07.364Z,27.47
2018-06-17T06:44:37.197Z,27.60
2018-06-17T06:47:07.042Z,27.76
2018-06-17T06:49:36.865Z,27.91
2018-06-17T06:52:06.744Z,27.94
2018-06-17T06:54:36.604Z,28.19
2018-06-17T06:57:06.662Z,28.29
2018-06-17T06:59:36.514Z,28.52
2018-06-17T07:02:17.224Z,28.75
2018-06-17T07:04:57.780Z,28.50
2018-06-17T07:07:38.568Z,28.53
2018-06-17T07:10:19.249Z,28.68
2018-06-17T07:12:49.059Z,28.85
2018-06-17T07:15:28.600Z,28.81
2018-06-17T07:18:09.245Z,28.65
2018-06-17T07:20:39.132Z,28.64
2018-06-17T07:23:08.635Z,28.61
2018-06-17T07:26:48.888Z,28.51
2018-06-17T07:29:31.589Z,28.62
2018-06-17T07:32:01.177Z,28.73
2018-06-17T07:34:30.752Z,28.93
2018-06-17T07:37:00.420Z,29.01
2018-06-17T07:41:37.300Z,29.01
2018-06-17T07:44:06.940Z,29.28
2018-06-17T07:46:36.508Z,29.26
2018-06-17T07:49:44.917Z,29.27
2018-06-17T07:52:26.392Z,29.37
2018-06-17T07:54:55.928Z,29.10
2018-06-17T07:57:26.688Z,29.16
2018-06-17T07:59:56.244Z,29.29
2018-06-17T08:02:25.792Z,29.46
2018-06-17T08:04:55.351Z,29.61
2018-06-17T08:07:24.867Z,29.69
2018-06-17T08:09:54.465Z,30.02
2018-06-17T08:12:24.064Z,29.97
2018-06-17T08:14:53.611Z,30.22
2018-06-17T08:17:23.159Z,29.90
2018-06-17T08:19:53.569Z,29.88
2018-06-17T08:22:23.115Z,29.85
2018-06-17T08:24:52.641Z,29.73
2018-06-17T08:27:22.171Z,29.72
2018-06-17T08:29:51.716Z,29.61
2018-06-17T08:32:21.235Z,29.52
2018-06-17T08:34:50.776Z,29.53
2018-06-17T08:37:20.304Z,29.57
2018-06-17T08:39:49.891Z,29.80
2018-06-17T08:42:19.423Z,29.83
2018-06-17T08:44:48.963Z,29.83
2018-06-17T08:47:18.493Z,29.91
2018-06-17T08:49:48.064Z,30.01
2018-06-17T08:52:17.597Z,30.07
2018-06-17T08:54:47.193Z,29.97
2018-06-17T08:57:16.704Z,29.95
2018-06-17T08:59:46.240Z,30.01
2018-06-17T09:02:15.749Z,30.14
2018-06-17T09:04:45.292Z,30.26
2018-06-17T09:07:14.828Z,30.23
2018-06-17T09:09:44.355Z,30.49
2018-06-17T09:12:13.847Z,30.59
2018-06-17T09:14:43.391Z,30.77
2018-06-17T09:17:12.917Z,30.78
2018-06-17T09:19:42.509Z,30.98
2018-06-17T09:22:11.999Z,31.09
2018-06-17T09:24:41.554Z,31.25
2018-06-17T09:27:11.083Z,31.09
2018-06-17T09:29:40.687Z,31.03
2018-06-17T09:32:10.317Z,31.03
2018-06-17T09:34:39.756Z,30.99
2018-06-17T09:37:09.288Z,31.03
2018-06-17T09:39:38.820Z,31.33
2018-06-17T09:42:08.367Z,31.58
2018-06-17T09:44:37.868Z,31.77
2018-06-17T09:47:07.444Z,31.90
2018-06-17T09:49:36.978Z,31.95
2018-06-17T09:52:06.554Z,32.06
2018-06-17T09:54:36.112Z,32.05
2018-06-17T09:57:05.671Z,32.02
2018-06-17T09:59:35.189Z,31.91
2018-06-17T10:02:04.820Z,32.17
2018-06-17T10:04:34.346Z,32.09
2018-06-17T10:07:03.872Z,32.35
2018-06-17T10:09:38.205Z,32.44
2018-06-17T10:12:07.740Z,32.15
2018-06-17T10:14:37.610Z,32.06
2018-06-17T10:17:08.864Z,32.24
2018-06-17T10:19:38.683Z,32.34
2018-06-17T10:22:08.631Z,32.41
2018-06-17T10:24:38.432Z,32.34
2018-06-17T10:27:08.372Z,32.36
2018-06-17T10:29:38.278Z,32.29
2018-06-17T10:32:08.108Z,32.07
2018-06-17T10:34:37.992Z,32.22
2018-06-17T10:37:07.859Z,32.23
2018-06-17T10:39:37.719Z,32.40
2018-06-17T10:42:07.529Z,32.47
2018-06-17T10:44:37.316Z,32.45
2018-06-17T10:47:07.147Z,32.43
2018-06-17T10:49:36.987Z,32.46
2018-06-17T10:52:06.883Z,32.54
2018-06-17T10:54:36.704Z,32.69
2018-06-17T10:57:07.371Z,32.78
2018-06-17T10:59:36.464Z,32.54
2018-06-17T11:02:06.464Z,32.80
2018-06-17T11:04:36.282Z,32.76
2018-06-17T11:07:06.188Z,32.56
2018-06-17T11:09:36.028Z,32.78
2018-06-17T11:12:05.950Z,32.79
2018-06-17T11:14:35.783Z,32.71
2018-06-17T11:17:05.642Z,32.71
2018-06-17T11:19:35.526Z,32.68
2018-06-17T11:22:05.360Z,32.63
2018-06-17T11:24:35.248Z,32.59
2018-06-17T11:27:05.102Z,32.72
2018-06-17T11:29:35.052Z,32.87
2018-06-17T11:32:04.922Z,32.70
2018-06-17T11:34:35.069Z,32.54
2018-06-17T11:37:04.976Z,32.78
2018-06-17T11:39:34.870Z,32.92
2018-06-17T11:42:04.715Z,33.04
2018-06-17T11:44:34.639Z,33.00
2018-06-17T11:47:04.512Z,33.16
2018-06-17T11:49:34.431Z,33.24
2018-06-17T11:52:04.357Z,33.20
2018-06-17T11:54:34.149Z,33.20
2018-06-17T11:57:04.056Z,33.00
2018-06-17T11:59:33.930Z,33.02
2018-06-17T12:02:03.851Z,33.09
2018-06-17T12:04:33.708Z,32.80
2018-06-17T12:07:03.598Z,32.96
2018-06-17T12:09:33.528Z,33.16
2018-06-17T12:12:03.382Z,33.38
2018-06-17T12:14:33.232Z,33.46
2018-06-17T12:17:03.134Z,33.58
2018-06-17T12:19:33.023Z,33.71
2018-06-17T12:22:02.860Z,33.77
2018-06-17T12:24:32.660Z,33.85
2018-06-17T12:27:02.448Z,33.72
2018-06-17T12:29:32.315Z,33.78
2018-06-17T12:32:02.093Z,33.76
2018-06-17T12:34:31.926Z,33.87
2018-06-17T12:37:01.731Z,33.82
2018-06-17T12:39:31.560Z,33.73
2018-06-17T12:42:01.356Z,34.05
2018-06-17T12:44:31.235Z,34.16
2018-06-17T12:47:01.059Z,34.09
2018-06-17T12:49:30.905Z,34.19
2018-06-17T12:52:00.699Z,34.35
2018-06-17T12:54:30.544Z,34.32
2018-06-17T12:57:00.337Z,34.26
2018-06-17T12:59:30.183Z,34.17
2018-06-17T13:01:59.984Z,33.96
2018-06-17T13:04:29.809Z,33.91
2018-06-17T13:06:59.644Z,33.86
2018-06-17T13:09:29.504Z,34.05
2018-06-17T13:11:59.323Z,33.78
2018-06-17T13:14:29.162Z,33.66
2018-06-17T13:16:58.990Z,33.90
2018-06-17T13:19:28.819Z,33.39
2018-06-17T13:21:58.696Z,32.86
2018-06-17T13:24:28.516Z,32.54
2018-06-17T13:26:58.320Z,32.50
2018-06-17T13:29:28.167Z,32.19
2018-06-17T13:31:58.040Z,32.03
2018-06-17T13:34:27.851Z,31.96
2018-06-17T13:36:57.720Z,31.79
2018-06-17T13:39:27.595Z,31.79
2018-06-17T13:41:57.488Z,31.89
2018-06-17T13:44:27.268Z,31.40
2018-06-17T13:46:57.160Z,31.50
2018-06-17T13:49:26.968Z,31.36
2018-06-17T13:51:56.801Z,31.36
2018-06-17T13:54:26.636Z,31.13
2018-06-17T13:56:56.480Z,31.10
2018-06-17T13:59:26.275Z,30.92
2018-06-17T14:01:56.132Z,30.88
2018-06-17T14:04:25.968Z,30.98
2018-06-17T14:06:55.852Z,30.70
2018-06-17T14:09:25.716Z,30.44
2018-06-17T14:11:55.568Z,30.27
2018-06-17T14:14:25.392Z,30.01
2018-06-17T14:16:55.456Z,29.95
2018-06-17T14:19:25.248Z,30.00
2018-06-17T14:21:55.144Z,29.88
2018-06-17T14:24:24.942Z,29.92
2018-06-17T14:26:54.793Z,29.65
2018-06-17T14:29:24.676Z,29.67
2018-06-17T14:31:54.519Z,29.80
2018-06-17T14:34:24.321Z,29.68
2018-06-17T14:36:54.193Z,29.66
2018-06-17T14:39:24.025Z,29.48
2018-06-17T14:41:58.978Z,29.25
2018-06-17T14:44:33.902Z,29.35
2018-06-17T14:47:08.881Z,29.37
2018-06-17T14:49:43.828Z,29.60
2018-06-17T14:52:18.760Z,29.63
2018-06-17T14:54:48.592Z,29.94
2018-06-17T14:57:18.454Z,30.09
2018-06-17T14:59:48.295Z,29.95
2018-06-17T15:02:18.204Z,30.14
2018-06-17T15:04:48.012Z,30.44
2018-06-17T15:07:17.880Z,30.63
2018-06-17T15:09:47.679Z,30.79
2018-06-17T15:12:17.479Z,30.90
2018-06-17T15:14:47.304Z,31.06
2018-06-17T15:17:17.193Z,31.08
2018-06-17T15:19:47.091Z,30.91
2018-06-17T15:22:16.848Z,31.00
2018-06-17T15:24:46.693Z,31.08
2018-06-17T15:27:16.512Z,31.12
2018-06-17T15:29:46.351Z,31.06
2018-06-17T15:32:21.351Z,31.02
2018-06-17T15:34:56.136Z,30.98
2018-06-17T15:37:31.115Z,30.98
2018-06-17T15:40:01.000Z,31.13
2018-06-17T15:42:30.840Z,31.22
2018-06-17T15:45:00.635Z,31.14
2018-06-17T15:47:30.464Z,31.10
2018-06-17T15:50:00.264Z,31.08
2018-06-17T15:52:30.104Z,31.02
2018-06-17T15:54:59.904Z,31.00
2018-06-17T15:57:29.812Z,30.99
2018-06-17T15:59:59.616Z,30.97
2018-06-17T16:02:29.508Z,30.87
2018-06-17T16:04:59.346Z,30.64
2018-06-17T16:07:29.184Z,30.71
2018-06-17T16:09:58.988Z,30.79
2018-06-17T16:12:33.920Z,30.85
2018-06-17T16:15:08.704Z,30.79
2018-06-17T16:17:43.576Z,30.70
2018-06-17T16:20:18.484Z,30.74
2018-06-17T16:22:48.319Z,30.67
2018-06-17T16:25:18.164Z,30.64
2018-06-17T16:27:47.960Z,30.56
2018-06-17T16:30:17.816Z,30.43
2018-06-17T16:32:47.667Z,30.32
2018-06-17T16:35:17.516Z,30.27
2018-06-17T16:37:47.333Z,30.27
2018-06-17T16:40:17.199Z,30.21
2018-06-17T16:42:47.304Z,30.11
2018-06-17T16:45:17.141Z,30.04
2018-06-17T16:47:46.976Z,29.89
2018-06-17T16:50:16.805Z,29.83
2018-06-17T16:52:51.671Z,29.76
2018-06-17T16:57:28.632Z,29.72
2018-06-17T17:00:01.843Z,29.59
2018-06-17T17:02:31.700Z,29.38
2018-06-17T17:05:01.517Z,29.29
2018-06-17T17:07:31.345Z,29.11
2018-06-17T17:10:01.270Z,29.12
2018-06-17T17:12:31.056Z,29.10
2018-06-17T17:15:00.859Z,29.03
2018-06-17T17:17:30.744Z,29.00
2018-06-17T17:20:00.580Z,29.00
2018-06-17T17:22:30.476Z,28.95
2018-06-17T17:25:00.285Z,28.94
2018-06-17T17:27:30.115Z,28.91
2018-06-17T17:29:59.929Z,28.84
2018-06-17T17:32:34.756Z,28.71
2018-06-17T17:35:09.604Z,28.70
2018-06-17T17:37:44.514Z,28.02
2018-06-17T17:40:19.460Z,28.57
2018-06-17T17:42:49.252Z,28.56
2018-06-17T17:45:23.073Z,28.15
2018-06-17T17:47:52.977Z,28.05
2018-06-17T17:50:22.848Z,27.98
2018-06-17T17:52:52.640Z,27.80
2018-06-17T17:55:22.485Z,27.70
2018-06-17T17:57:52.277Z,27.49
2018-06-17T18:00:22.112Z,27.47
2018-06-17T18:02:51.992Z,27.51
2018-06-17T18:05:21.775Z,27.45
2018-06-17T18:07:51.851Z,27.45
2018-06-17T18:10:21.639Z,27.36
2018-06-17T18:12:51.452Z,27.33
2018-06-17T18:15:21.308Z,27.26
2018-06-17T18:17:51.125Z,27.17
2018-06-17T18:20:20.988Z,27.05
2018-06-17T18:22:50.958Z,27.01
2018-06-17T18:25:25.967Z,26.96
2018-06-17T18:28:00.792Z,26.59
2018-06-17T18:30:35.731Z,26.52
2018-06-17T18:33:10.697Z,26.27
2018-06-17T18:35:45.611Z,26.09
2018-06-17T18:38:15.432Z,25.86
2018-06-17T18:40:45.278Z,25.71
2018-06-17T18:43:15.118Z,25.55
2018-06-17T18:45:44.964Z,25.44
2018-06-17T18:48:14.797Z,25.35
2018-06-17T18:50:44.676Z,25.12
2018-06-17T18:53:19.319Z,24.92
2018-06-17T18:55:49.144Z,24.74
2018-06-17T18:58:19.300Z,24.46
2018-06-17T19:00:49.740Z,24.33
2018-06-17T19:03:19.761Z,24.27
2018-06-17T19:05:49.610Z,24.21
2018-06-17T19:08:24.592Z,24.14
2018-06-17T19:10:59.495Z,24.00
2018-06-17T19:13:34.441Z,23.88
2018-06-17T19:16:11.768Z,23.88
2018-06-17T19:18:41.548Z,23.71
2018-06-17T19:21:11.385Z,23.78
2018-06-17T19:23:41.224Z,23.72
2018-06-17T19:26:11.096Z,23.74
2018-06-17T19:28:40.908Z,23.63
2018-06-17T19:31:10.750Z,23.57
2018-06-17T19:33:40.551Z,23.46
2018-06-17T19:36:10.454Z,23.34
2018-06-17T19:38:40.297Z,23.29
2018-06-17T19:41:10.193Z,23.26
2018-06-17T19:43:40.040Z,23.19
2018-06-17T19:46:09.869Z,23.15
2018-06-17T19:48:39.798Z,23.06
2018-06-17T19:51:14.708Z,23.07
2018-06-17T19:55:56.605Z,23.00
2018-06-17T19:58:31.380Z,23.01
2018-06-17T20:01:02.820Z,21.94
2018-06-17T20:03:32.707Z,23.07
2018-06-17T20:06:02.558Z,23.05
2018-06-17T20:08:32.413Z,23.07
2018-06-17T20:11:02.421Z,23.03
2018-06-17T20:13:32.267Z,23.00
2018-06-17T20:16:02.109Z,22.97
2018-06-17T20:18:32.023Z,22.94
2018-06-17T20:21:01.880Z,22.81
2018-06-17T20:23:31.701Z,22.73
2018-06-17T20:26:01.535Z,22.68
2018-06-17T20:28:31.403Z,22.69
2018-06-17T20:31:07.064Z,22.59
2018-06-17T20:33:41.865Z,22.71
2018-06-17T20:36:16.816Z,22.68
2018-06-17T20:38:51.592Z,22.75
2018-06-17T20:41:26.592Z,22.76
2018-06-17T20:43:56.468Z,22.78
2018-06-17T20:46:26.308Z,22.75
2018-06-17T20:48:56.196Z,22.77
2018-06-17T20:51:26.030Z,22.61
2018-06-17T20:53:55.900Z,22.58
2018-06-17T20:56:25.732Z,22.50
2018-06-17T20:58:55.568Z,22.37
2018-06-17T21:01:25.482Z,22.46
2018-06-17T21:03:55.304Z,22.45
2018-06-17T21:06:25.205Z,22.30
2018-06-17T21:08:54.992Z,22.24
2018-06-17T21:11:24.852Z,22.18
2018-06-17T21:13:54.636Z,22.15
2018-06-17T21:16:24.436Z,22.15
2018-06-17T21:18:59.383Z,22.06
2018-06-17T21:21:34.245Z,22.15
2018-06-17T21:24:09.092Z,22.17
2018-06-17T21:26:44.047Z,22.24
2018-06-17T21:29:13.839Z,22.24
2018-06-17T21:31:43.695Z,22.35
2018-06-17T21:34:13.516Z,22.22
2018-06-17T21:36:43.358Z,22.19
2018-06-17T21:39:13.200Z,22.08
2018-06-17T21:41:42.989Z,22.26
2018-06-17T21:44:12.820Z,22.26
2018-06-17T21:46:42.637Z,22.24
2018-06-17T21:49:12.599Z,22.30
2018-06-17T21:51:42.428Z,22.40
2018-06-17T21:54:12.261Z,22.36
2018-06-17T21:56:42.062Z,22.40
2018-06-17T21:59:11.904Z,22.40
2018-06-17T22:01:41.739Z,22.45
2018-06-17T22:04:16.553Z,22.45
2018-06-17T22:06:46.403Z,22.36
2018-06-17T22:09:21.348Z,22.37
2018-06-17T22:11:56.237Z,22.33
2018-06-17T22:14:31.036Z,22.46
2018-06-17T22:17:06.016Z,22.42
2018-06-17T22:19:35.971Z,22.39
2018-06-17T22:22:05.774Z,22.35
2018-06-17T22:24:35.670Z,22.23
2018-06-17T22:27:05.531Z,22.22
2018-06-17T22:29:35.404Z,22.17
2018-06-17T22:32:05.300Z,22.20
2018-06-17T22:34:35.123Z,22.20
2018-06-17T22:37:05.008Z,22.14
2018-06-17T22:39:34.856Z,21.98
2018-06-17T22:42:04.733Z,21.98
2018-06-17T22:44:34.521Z,22.01
2018-06-17T22:47:04.382Z,21.96
2018-06-17T22:49:34.215Z,21.95
2018-06-17T22:52:04.092Z,21.92
2018-06-17T22:54:44.705Z,21.95
2018-06-17T22:57:19.629Z,21.94
2018-06-17T22:59:54.421Z,21.87
2018-06-17T23:02:29.360Z,21.84
2018-06-17T23:05:04.338Z,21.83
2018-06-17T23:07:39.299Z,21.84
2018-06-17T23:10:10.669Z,21.78
2018-06-17T23:12:40.717Z,21.62
2018-06-17T23:15:10.618Z,21.59
2018-06-17T23:17:40.560Z,21.35
2018-06-17T23:20:10.388Z,21.26
2018-06-17T23:22:40.228Z,21.32
2018-06-17T23:25:10.005Z,21.21
2018-06-17T23:27:39.820Z,21.20
2018-06-17T23:30:09.632Z,20.40
2018-06-17T23:32:39.533Z,21.25
2018-06-17T23:35:09.381Z,21.26
2018-06-17T23:37:39.220Z,21.26
2018-06-17T23:40:09.045Z,21.35
2018-06-17T23:42:38.875Z,21.37
2018-06-17T23:45:08.692Z,21.30
2018-06-17T23:47:43.651Z,21.33
2018-06-17T23:50:18.560Z,21.36
2018-06-17T23:52:53.532Z,21.31
2018-06-17T23:55:28.313Z,21.27
2018-06-17T23:57:58.140Z,21.21
